sensor_id;sensor_type;location;lat;lon;timestamp;pressure;altitude;pressure_sealevel;temperature;humidity
14295;BME280;7231;59.370;18.016;2022-11-15T00:01:15;101662.88;;;7.67;100.00
14295;BME280;7231;59.370;18.016;2022-11-15T00:03:44;101649.66;;;7.64;100.00
14295;BME280;7231;59.370;18.016;2022-11-15T00:06:12;101608.50;;;7.42;100.00
14295;BME280;7231;59.370;18.016;2022-11-15T00:08:40;101643.38;;;7.61;100.00
14295;BME280;7231;59.370;18.016;2022-11-15T00:11:10;101627.09;;;7.48;100.00
14295;BME280;7231;59.370;18.016;2022-11-15T00:13:39;101638.81;;;7.57;100.00
14295;BME280;7231;59.370;18.016;2022-11-15T00:16:08;101635.88;;;7.51;100.00
14295;BME280;7231;59.370;18.016;2022-11-15T00:18:37;101628.38;;;7.40;100.00
14295;BME280;7231;59.370;18.016;2022-11-15T00:21:07;101598.38;;;7.16;100.00
14295;BME280;7231;59.370;18.016;2022-11-15T00:23:36;101589.72;;;7.01;100.00
14295;BME280;7231;59.370;18.016;2022-11-15T00:26:04;101633.84;;;7.29;100.00
14295;BME280;7231;59.370;18.016;2022-11-15T00:28:32;101632.13;;;7.29;100.00
14295;BME280;7231;59.370;18.016;2022-11-15T00:31:00;101608.09;;;7.19;100.00
14295;BME280;7231;59.370;18.016;2022-11-15T00:33:30;101628.63;;;7.29;100.00
14295;BME280;7231;59.370;18.016;2022-11-15T00:36:00;101631.88;;;7.25;100.00
14295;BME280;7231;59.370;18.016;2022-11-15T00:38:31;101631.97;;;7.26;100.00
14295;BME280;7231;59.370;18.016;2022-11-15T00:41:00;101619.09;;;7.29;100.00
14295;BME280;7231;59.370;18.016;2022-11-15T00:43:35;101615.66;;;7.30;100.00
14295;BME280;7231;59.370;18.016;2022-11-15T00:46:03;101622.69;;;7.31;100.00
14295;BME280;7231;59.370;18.016;2022-11-15T00:48:33;101634.09;;;7.33;100.00
14295;BME280;7231;59.370;18.016;2022-11-15T00:51:01;101629.69;;;7.32;100.00
14295;BME280;7231;59.370;18.016;2022-11-15T00:53:29;101601.00;;;7.16;100.00
14295;BME280;7231;59.370;18.016;2022-11-15T00:55:57;101633.13;;;7.31;100.00
14295;BME280;7231;59.370;18.016;2022-11-15T00:58:25;101627.91;;;7.31;100.00
14295;BME280;7231;59.370;18.016;2022-11-15T01:00:53;101557.94;;;6.92;100.00
14295;BME280;7231;59.370;18.016;2022-11-15T01:03:21;101613.88;;;7.13;100.00
14295;BME280;7231;59.370;18.016;2022-11-15T01:05:51;101615.19;;;7.21;100.00
14295;BME280;7231;59.370;18.016;2022-11-15T01:08:19;101644.38;;;7.30;100.00
14295;BME280;7231;59.370;18.016;2022-11-15T01:10:46;101604.09;;;7.09;100.00
14295;BME280;7231;59.370;18.016;2022-11-15T01:13:14;101643.31;;;7.27;100.00
14295;BME280;7231;59.370;18.016;2022-11-15T01:15:42;101640.59;;;7.25;100.00
14295;BME280;7231;59.370;18.016;2022-11-15T01:18:10;101638.72;;;7.23;100.00
14295;BME280;7231;59.370;18.016;2022-11-15T01:20:40;101596.91;;;7.05;100.00
14295;BME280;7231;59.370;18.016;2022-11-15T01:23:09;101633.53;;;7.23;100.00
14295;BME280;7231;59.370;18.016;2022-11-15T01:25:37;101621.53;;;7.10;100.00
14295;BME280;7231;59.370;18.016;2022-11-15T01:28:05;101640.28;;;7.19;100.00
14295;BME280;7231;59.370;18.016;2022-11-15T01:30:35;101621.19;;;7.04;100.00
14295;BME280;7231;59.370;18.016;2022-11-15T01:33:03;101654.78;;;7.14;100.00
14295;BME280;7231;59.370;18.016;2022-11-15T01:35:31;101629.66;;;7.00;100.00
14295;BME280;7231;59.370;18.016;2022-11-15T01:37:59;101623.75;;;6.88;100.00
14295;BME280;7231;59.370;18.016;2022-11-15T01:40:30;101631.59;;;6.88;100.00
14295;BME280;7231;59.370;18.016;2022-11-15T01:42:58;101658.69;;;7.06;100.00
14295;BME280;7231;59.370;18.016;2022-11-15T01:45:26;101631.84;;;6.92;100.00
14295;BME280;7231;59.370;18.016;2022-11-15T01:47:54;101649.88;;;7.04;100.00
14295;BME280;7231;59.370;18.016;2022-11-15T01:50:25;101642.88;;;7.03;100.00
14295;BME280;7231;59.370;18.016;2022-11-15T01:52:55;101639.34;;;7.02;100.00
14295;BME280;7231;59.370;18.016;2022-11-15T01:55:26;101644.41;;;6.99;100.00
14295;BME280;7231;59.370;18.016;2022-11-15T01:58:00;101607.63;;;6.78;100.00
14295;BME280;7231;59.370;18.016;2022-11-15T02:00:30;101631.34;;;6.83;100.00
14295;BME280;7231;59.370;18.016;2022-11-15T02:02:59;101645.78;;;6.93;100.00
14295;BME280;7231;59.370;18.016;2022-11-15T02:05:27;101636.00;;;6.89;100.00
14295;BME280;7231;59.370;18.016;2022-11-15T02:07:55;101584.75;;;6.58;100.00
14295;BME280;7231;59.370;18.016;2022-11-15T02:10:24;101620.66;;;6.78;100.00
14295;BME280;7231;59.370;18.016;2022-11-15T02:12:53;101649.66;;;6.84;100.00
14295;BME280;7231;59.370;18.016;2022-11-15T02:15:27;101631.34;;;6.83;100.00
14295;BME280;7231;59.370;18.016;2022-11-15T02:18:07;101627.75;;;6.81;100.00
14295;BME280;7231;59.370;18.016;2022-11-15T02:20:55;101636.47;;;6.81;100.00
14295;BME280;7231;59.370;18.016;2022-11-15T02:23:44;101645.19;;;6.82;100.00
14295;BME280;7231;59.370;18.016;2022-11-15T02:29:12;101618.25;;;6.67;100.00
14295;BME280;7231;59.370;18.016;2022-11-15T02:31:48;101643.22;;;6.78;100.00
14295;BME280;7231;59.370;18.016;2022-11-15T02:34:26;101652.75;;;6.77;100.00
14295;BME280;7231;59.370;18.016;2022-11-15T02:37:03;101648.25;;;6.75;100.00
14295;BME280;7231;59.370;18.016;2022-11-15T02:39:38;101643.75;;;6.72;100.00
14295;BME280;7231;59.370;18.016;2022-11-15T02:42:14;101654.81;;;6.68;100.00
14295;BME280;7231;59.370;18.016;2022-11-15T02:45:05;101650.25;;;6.64;100.00
14295;BME280;7231;59.370;18.016;2022-11-15T02:47:42;101648.28;;;6.60;100.00
14295;BME280;7231;59.370;18.016;2022-11-15T02:50:12;101646.31;;;6.56;100.00
14295;BME280;7231;59.370;18.016;2022-11-15T02:52:45;101610.25;;;6.33;100.00
14295;BME280;7231;59.370;18.016;2022-11-15T02:55:27;101629.38;;;6.33;100.00
14295;BME280;7231;59.370;18.016;2022-11-15T02:58:05;101619.16;;;6.22;100.00
14295;BME280;7231;59.370;18.016;2022-11-15T03:00:44;101654.06;;;6.40;100.00
14295;BME280;7231;59.370;18.016;2022-11-15T03:03:35;101662.16;;;6.44;100.00
14295;BME280;7231;59.370;18.016;2022-11-15T03:06:17;101656.59;;;6.38;100.00
14295;BME280;7231;59.370;18.016;2022-11-15T03:08:58;101661.53;;;6.34;100.00
14295;BME280;7231;59.370;18.016;2022-11-15T03:11:33;101659.63;;;6.31;100.00
14295;BME280;7231;59.370;18.016;2022-11-15T03:14:14;101657.03;;;6.31;100.00
14295;BME280;7231;59.370;18.016;2022-11-15T03:16:47;101629.84;;;6.11;100.00
14295;BME280;7231;59.370;18.016;2022-11-15T03:19:25;101647.69;;;6.20;100.00
14295;BME280;7231;59.370;18.016;2022-11-15T03:21:56;101660.34;;;6.29;100.00
14295;BME280;7231;59.370;18.016;2022-11-15T03:24:28;101653.25;;;6.26;100.00
14295;BME280;7231;59.370;18.016;2022-11-15T03:26:59;101635.31;;;6.16;100.00
14295;BME280;7231;59.370;18.016;2022-11-15T03:29:32;101647.97;;;6.25;100.00
14295;BME280;7231;59.370;18.016;2022-11-15T03:32:05;101657.31;;;6.21;100.00
14295;BME280;7231;59.370;18.016;2022-11-15T03:34:41;101662.44;;;6.19;100.00
14295;BME280;7231;59.370;18.016;2022-11-15T03:37:11;101666.66;;;6.17;100.00
14295;BME280;7231;59.370;18.016;2022-11-15T03:39:41;101673.56;;;6.17;100.00
14295;BME280;7231;59.370;18.016;2022-11-15T03:42:18;101670.06;;;6.16;100.00
14295;BME280;7231;59.370;18.016;2022-11-15T03:44:54;101587.41;;;5.70;100.00
14295;BME280;7231;59.370;18.016;2022-11-15T03:47:27;101667.44;;;6.16;100.00
14295;BME280;7231;59.370;18.016;2022-11-15T03:50:01;101668.25;;;6.15;100.00
14295;BME280;7231;59.370;18.016;2022-11-15T03:52:32;101637.72;;;5.98;100.00
14295;BME280;7231;59.370;18.016;2022-11-15T03:55:03;101673.38;;;6.14;100.00
14295;BME280;7231;59.370;18.016;2022-11-15T03:57:31;101666.38;;;6.13;100.00
14295;BME280;7231;59.370;18.016;2022-11-15T03:59:59;101675.19;;;6.15;100.00
14295;BME280;7231;59.370;18.016;2022-11-15T04:02:27;101676.88;;;6.14;100.00
14295;BME280;7231;59.370;18.016;2022-11-15T04:04:55;101553.31;;;5.50;100.00
14295;BME280;7231;59.370;18.016;2022-11-15T04:07:25;101597.22;;;5.74;100.00
14295;BME280;7231;59.370;18.016;2022-11-15T04:09:54;101673.28;;;6.12;100.00
14295;BME280;7231;59.370;18.016;2022-11-15T04:12:34;101677.50;;;6.10;100.00
14295;BME280;7231;59.370;18.016;2022-11-15T04:15:04;101673.09;;;6.09;100.00
14295;BME280;7231;59.370;18.016;2022-11-15T04:17:37;101673.72;;;6.05;100.00
14295;BME280;7231;59.370;18.016;2022-11-15T04:20:08;101678.84;;;6.04;100.00
14295;BME280;7231;59.370;18.016;2022-11-15T04:22:57;101679.75;;;6.04;100.00
14295;BME280;7231;59.370;18.016;2022-11-15T04:25:43;101682.44;;;6.06;100.00
14295;BME280;7231;59.370;18.016;2022-11-15T04:28:12;101683.44;;;6.08;100.00
14295;BME280;7231;59.370;18.016;2022-11-15T04:30:40;101694.94;;;6.11;100.00
14295;BME280;7231;59.370;18.016;2022-11-15T04:33:08;101687.28;;;6.14;100.00
14295;BME280;7231;59.370;18.016;2022-11-15T04:35:36;101685.50;;;6.13;100.00
14295;BME280;7231;59.370;18.016;2022-11-15T04:38:07;101682.09;;;6.14;100.00
14295;BME280;7231;59.370;18.016;2022-11-15T04:40:35;101628.19;;;5.84;100.00
14295;BME280;7231;59.370;18.016;2022-11-15T04:43:03;101587.59;;;5.58;100.00
14295;BME280;7231;59.370;18.016;2022-11-15T04:45:31;101689.09;;;6.15;100.00
14295;BME280;7231;59.370;18.016;2022-11-15T04:47:59;101690.00;;;6.16;100.00
14295;BME280;7231;59.370;18.016;2022-11-15T04:50:27;101619.81;;;5.75;100.00
14295;BME280;7231;59.370;18.016;2022-11-15T04:52:55;101688.81;;;6.11;100.00
14295;BME280;7231;59.370;18.016;2022-11-15T04:55:24;101689.09;;;6.15;100.00
14295;BME280;7231;59.370;18.016;2022-11-15T04:57:59;101617.50;;;5.79;100.00
14295;BME280;7231;59.370;18.016;2022-11-15T05:00:28;101689.09;;;6.15;100.00
14295;BME280;7231;59.370;18.016;2022-11-15T05:02:57;101692.50;;;6.14;100.00
14295;BME280;7231;59.370;18.016;2022-11-15T05:05:42;101661.78;;;5.94;100.00
14295;BME280;7231;59.370;18.016;2022-11-15T05:08:11;101695.81;;;6.12;100.00
14295;BME280;7231;59.370;18.016;2022-11-15T05:10:40;101696.72;;;6.12;100.00
14295;BME280;7231;59.370;18.016;2022-11-15T05:13:08;101695.91;;;6.13;100.00
14295;BME280;7231;59.370;18.016;2022-11-15T05:15:36;101664.28;;;5.93;100.00
14295;BME280;7231;59.370;18.016;2022-11-15T05:18:04;101698.63;;;6.15;100.00
14295;BME280;7231;59.370;18.016;2022-11-15T05:20:32;101694.13;;;6.12;100.00
14295;BME280;7231;59.370;18.016;2022-11-15T05:23:00;101690.00;;;6.16;100.00
14295;BME280;7231;59.370;18.016;2022-11-15T05:25:29;101693.31;;;6.13;100.00
14295;BME280;7231;59.370;18.016;2022-11-15T05:27:58;101699.34;;;6.12;100.00
14295;BME280;7231;59.370;18.016;2022-11-15T05:30:26;101628.53;;;5.75;100.00
14295;BME280;7231;59.370;18.016;2022-11-15T05:32:54;101672.94;;;6.06;100.00
14295;BME280;7231;59.370;18.016;2022-11-15T05:35:29;101656.31;;;5.90;100.00
14295;BME280;7231;59.370;18.016;2022-11-15T05:37:58;101701.03;;;6.12;100.00
14295;BME280;7231;59.370;18.016;2022-11-15T05:40:26;101709.66;;;6.11;100.00
14295;BME280;7231;59.370;18.016;2022-11-15T05:42:55;101682.16;;;6.01;100.00
14295;BME280;7231;59.370;18.016;2022-11-15T05:45:25;101573.66;;;5.43;100.00
14295;BME280;7231;59.370;18.016;2022-11-15T05:47:54;101696.72;;;6.12;100.00
14295;BME280;7231;59.370;18.016;2022-11-15T05:50:24;101700.31;;;6.14;100.00
14295;BME280;7231;59.370;18.016;2022-11-15T05:52:54;101708.13;;;6.14;100.00
14295;BME280;7231;59.370;18.016;2022-11-15T05:55:30;101715.94;;;6.14;100.00
14295;BME280;7231;59.370;18.016;2022-11-15T05:57:59;101717.84;;;6.17;100.00
14295;BME280;7231;59.370;18.016;2022-11-15T06:00:29;101714.31;;;6.16;100.00
14295;BME280;7231;59.370;18.016;2022-11-15T06:02:57;101699.50;;;6.01;100.00
14295;BME280;7231;59.370;18.016;2022-11-15T06:05:25;101722.13;;;6.16;100.00
14295;BME280;7231;59.370;18.016;2022-11-15T06:07:57;101727.44;;;6.18;100.00
14295;BME280;7231;59.370;18.016;2022-11-15T06:10:25;101728.34;;;6.18;100.00
14295;BME280;7231;59.370;18.016;2022-11-15T06:12:57;101726.63;;;6.19;100.00
14295;BME280;7231;59.370;18.016;2022-11-15T06:15:25;101704.44;;;6.11;100.00
14295;BME280;7231;59.370;18.016;2022-11-15T06:17:57;101730.41;;;6.24;100.00
14295;BME280;7231;59.370;18.016;2022-11-15T06:20:25;101712.63;;;6.17;100.00
14295;BME280;7231;59.370;18.016;2022-11-15T06:22:57;101718.72;;;6.17;100.00
14295;BME280;7231;59.370;18.016;2022-11-15T06:25:27;101730.41;;;6.24;100.00
14295;BME280;7231;59.370;18.016;2022-11-15T06:27:57;101727.34;;;6.31;100.00
14295;BME280;7231;59.370;18.016;2022-11-15T06:30:26;101734.72;;;6.24;100.00
14295;BME280;7231;59.370;18.016;2022-11-15T06:33:03;101733.00;;;6.24;100.00
14295;BME280;7231;59.370;18.016;2022-11-15T06:35:33;101751.06;;;6.36;100.00
14295;BME280;7231;59.370;18.016;2022-11-15T06:38:03;101727.53;;;6.19;100.00
14295;BME280;7231;59.370;18.016;2022-11-15T06:40:33;101749.28;;;6.35;100.00
14295;BME280;7231;59.370;18.016;2022-11-15T06:43:02;101753.94;;;6.40;100.00
14295;BME280;7231;59.370;18.016;2022-11-15T06:45:31;101760.16;;;6.42;100.00
14295;BME280;7231;59.370;18.016;2022-11-15T06:47:59;101756.81;;;6.45;100.00
14295;BME280;7231;59.370;18.016;2022-11-15T06:50:29;101740.66;;;6.36;100.00
14295;BME280;7231;59.370;18.016;2022-11-15T06:53:01;101761.41;;;6.49;100.00
14295;BME280;7231;59.370;18.016;2022-11-15T06:55:29;101771.84;;;6.49;100.00
14295;BME280;7231;59.370;18.016;2022-11-15T06:57:57;101770.22;;;6.51;100.00
14295;BME280;7231;59.370;18.016;2022-11-15T07:00:25;101754.03;;;6.42;100.00
14295;BME280;7231;59.370;18.016;2022-11-15T07:02:53;101768.50;;;6.51;100.00
14295;BME280;7231;59.370;18.016;2022-11-15T07:05:21;101761.59;;;6.52;100.00
14295;BME280;7231;59.370;18.016;2022-11-15T07:07:54;101762.94;;;6.45;100.00
14295;BME280;7231;59.370;18.016;2022-11-15T07:10:23;101764.09;;;6.50;100.00
14295;BME280;7231;59.370;18.016;2022-11-15T07:12:52;101766.72;;;6.50;100.00
14295;BME280;7231;59.370;18.016;2022-11-15T07:15:22;101756.75;;;6.43;100.00
14295;BME280;7231;59.370;18.016;2022-11-15T07:17:51;101778.94;;;6.51;100.00
14295;BME280;7231;59.370;18.016;2022-11-15T07:20:19;101776.41;;;6.53;100.00
14295;BME280;7231;59.370;18.016;2022-11-15T07:22:47;101774.53;;;6.50;100.00
14295;BME280;7231;59.370;18.016;2022-11-15T07:25:16;101783.44;;;6.54;100.00
14295;BME280;7231;59.370;18.016;2022-11-15T07:27:54;101785.22;;;6.55;100.00
14295;BME280;7231;59.370;18.016;2022-11-15T07:30:23;101775.53;;;6.53;100.00
14295;BME280;7231;59.370;18.016;2022-11-15T07:32:52;101774.53;;;6.50;100.00
14295;BME280;7231;59.370;18.016;2022-11-15T07:35:20;101776.25;;;6.50;100.00
14295;BME280;7231;59.370;18.016;2022-11-15T07:37:55;101766.72;;;6.50;99.88
14295;BME280;7231;59.370;18.016;2022-11-15T07:40:25;101766.81;;;6.52;100.00
14295;BME280;7231;59.370;18.016;2022-11-15T07:42:59;101772.72;;;6.49;100.00
14295;BME280;7231;59.370;18.016;2022-11-15T07:45:27;101782.97;;;6.46;99.89
14295;BME280;7231;59.370;18.016;2022-11-15T07:47:55;101775.59;;;6.39;99.26
14295;BME280;7231;59.370;18.016;2022-11-15T07:50:24;101780.63;;;6.36;100.00
14295;BME280;7231;59.370;18.016;2022-11-15T07:52:55;101779.81;;;6.37;100.00
14295;BME280;7231;59.370;18.016;2022-11-15T07:55:27;101786.13;;;6.41;100.00
14295;BME280;7231;59.370;18.016;2022-11-15T07:58:00;101783.69;;;6.44;100.00
14295;BME280;7231;59.370;18.016;2022-11-15T08:00:29;101784.78;;;6.47;99.70
14295;BME280;7231;59.370;18.016;2022-11-15T08:03:04;101780.47;;;6.48;100.00
14295;BME280;7231;59.370;18.016;2022-11-15T08:05:32;101793.03;;;6.55;99.89
14295;BME280;7231;59.370;18.016;2022-11-15T08:08:00;101795.81;;;6.58;99.87
14295;BME280;7231;59.370;18.016;2022-11-15T08:10:31;101791.50;;;6.59;99.70
14295;BME280;7231;59.370;18.016;2022-11-15T08:13:08;101790.63;;;6.58;99.99
14295;BME280;7231;59.370;18.016;2022-11-15T08:15:37;101794.47;;;6.65;100.00
14295;BME280;7231;59.370;18.016;2022-11-15T08:18:10;101795.66;;;6.70;99.92
14295;BME280;7231;59.370;18.016;2022-11-15T08:20:39;101796.66;;;6.72;99.77
14295;BME280;7231;59.370;18.016;2022-11-15T08:23:07;101796.28;;;6.66;99.13
14295;BME280;7231;59.370;18.016;2022-11-15T08:25:37;101786.47;;;6.47;98.74
14295;BME280;7231;59.370;18.016;2022-11-15T08:28:06;101800.50;;;6.49;99.52
14295;BME280;7231;59.370;18.016;2022-11-15T08:30:36;101814.16;;;6.74;100.00
14295;BME280;7231;59.370;18.016;2022-11-15T08:33:10;101818.09;;;7.12;100.00
14295;BME280;7231;59.370;18.016;2022-11-15T08:35:39;101780.50;;;7.23;100.00
14295;BME280;7231;59.370;18.016;2022-11-15T08:38:07;101745.59;;;7.21;99.99
14295;BME280;7231;59.370;18.016;2022-11-15T08:40:36;101794.09;;;7.48;98.75
14295;BME280;7231;59.370;18.016;2022-11-15T08:43:05;101801.56;;;7.42;98.03
14295;BME280;7231;59.370;18.016;2022-11-15T08:45:34;101810.22;;;7.41;97.49
14295;BME280;7231;59.370;18.016;2022-11-15T08:48:03;101800.50;;;7.39;97.55
14295;BME280;7231;59.370;18.016;2022-11-15T08:50:31;101807.09;;;7.32;97.22
14295;BME280;7231;59.370;18.016;2022-11-15T08:53:04;101790.41;;;7.14;96.28
14295;BME280;7231;59.370;18.016;2022-11-15T08:55:37;101804.06;;;7.25;96.83
14295;BME280;7231;59.370;18.016;2022-11-15T08:58:05;101828.66;;;7.44;97.66
14295;BME280;7231;59.370;18.016;2022-11-15T09:00:34;101825.19;;;7.60;96.70
14295;BME280;7231;59.370;18.016;2022-11-15T09:03:03;101826.19;;;7.62;95.52
14295;BME280;7231;59.370;18.016;2022-11-15T09:05:32;101834.91;;;7.63;94.81
14295;BME280;7231;59.370;18.016;2022-11-15T09:08:03;101841.75;;;7.61;93.99
14295;BME280;7231;59.370;18.016;2022-11-15T09:10:53;101835.63;;;7.60;93.59
14295;BME280;7231;59.370;18.016;2022-11-15T09:13:22;101849.31;;;7.56;92.51
14295;BME280;7231;59.370;18.016;2022-11-15T09:15:49;101840.34;;;7.51;92.52
14295;BME280;7231;59.370;18.016;2022-11-15T09:18:17;101829.03;;;7.36;92.22
14295;BME280;7231;59.370;18.016;2022-11-15T09:20:48;101848.38;;;7.39;91.25
14295;BME280;7231;59.370;18.016;2022-11-15T09:23:15;101845.59;;;7.36;91.36
14295;BME280;7231;59.370;18.016;2022-11-15T09:25:43;101828.44;;;7.25;91.31
14295;BME280;7231;59.370;18.016;2022-11-15T09:28:13;101834.28;;;7.21;90.73
14295;BME280;7231;59.370;18.016;2022-11-15T09:30:41;101812.19;;;7.00;90.06
14295;BME280;7231;59.370;18.016;2022-11-15T09:33:10;101841.38;;;7.24;89.86
14295;BME280;7231;59.370;18.016;2022-11-15T09:35:38;101847.50;;;7.24;89.36
14295;BME280;7231;59.370;18.016;2022-11-15T09:38:07;101844.16;;;7.27;89.71
14295;BME280;7231;59.370;18.016;2022-11-15T09:40:37;101844.97;;;7.26;89.16
14295;BME280;7231;59.370;18.016;2022-11-15T09:43:23;101860.63;;;7.26;89.02
14295;BME280;7231;59.370;18.016;2022-11-15T09:46:03;101852.81;;;7.26;88.91
14295;BME280;7231;59.370;18.016;2022-11-15T09:48:42;101845.78;;;7.25;88.37
14295;BME280;7231;59.370;18.016;2022-11-15T09:51:18;101864.13;;;7.26;88.41
14295;BME280;7231;59.370;18.016;2022-11-15T09:53:52;101863.50;;;7.30;88.52
14295;BME280;7231;59.370;18.016;2022-11-15T09:56:44;101859.00;;;7.28;88.20
14295;BME280;7231;59.370;18.016;2022-11-15T09:59:39;101847.59;;;7.26;87.49
14295;BME280;7231;59.370;18.016;2022-11-15T10:02:19;101847.75;;;7.29;87.71
14295;BME280;7231;59.370;18.016;2022-11-15T10:04:53;101801.03;;;7.02;87.64
14295;BME280;7231;59.370;18.016;2022-11-15T10:07:26;101840.47;;;7.23;87.56
14295;BME280;7231;59.370;18.016;2022-11-15T10:10:00;101764.91;;;6.79;87.18
14295;BME280;7231;59.370;18.016;2022-11-15T10:12:30;101866.47;;;7.36;87.22
14295;BME280;7231;59.370;18.016;2022-11-15T10:15:02;101847.38;;;7.37;87.23
14295;BME280;7231;59.370;18.016;2022-11-15T10:17:48;101858.34;;;7.46;86.89
14295;BME280;7231;59.370;18.016;2022-11-15T10:20:22;101780.25;;;7.04;86.76
14295;BME280;7231;59.370;18.016;2022-11-15T10:22:52;101864.56;;;7.48;86.22
14295;BME280;7231;59.370;18.016;2022-11-15T10:25:22;101816.53;;;7.30;85.96
14295;BME280;7231;59.370;18.016;2022-11-15T10:27:55;101859.22;;;7.62;86.11
14295;BME280;7231;59.370;18.016;2022-11-15T10:30:31;101854.34;;;7.68;84.97
14295;BME280;7231;59.370;18.016;2022-11-15T10:33:10;101848.22;;;7.67;84.53
14295;BME280;7231;59.370;18.016;2022-11-15T10:35:39;101859.38;;;7.65;84.69
14295;BME280;7231;59.370;18.016;2022-11-15T10:38:09;101843.28;;;7.57;83.75
14295;BME280;7231;59.370;18.016;2022-11-15T10:40:39;101854.00;;;7.62;83.62
14295;BME280;7231;59.370;18.016;2022-11-15T10:43:16;101821.97;;;7.49;83.44
14295;BME280;7231;59.370;18.016;2022-11-15T10:45:46;101860.63;;;7.71;83.46
14295;BME280;7231;59.370;18.016;2022-11-15T10:48:22;101862.50;;;7.74;83.33
14295;BME280;7231;59.370;18.016;2022-11-15T10:50:51;101839.78;;;7.57;83.26
14295;BME280;7231;59.370;18.016;2022-11-15T10:53:24;101794.88;;;7.31;82.90
14295;BME280;7231;59.370;18.016;2022-11-15T10:56:00;101857.66;;;7.65;82.92
14295;BME280;7231;59.370;18.016;2022-11-15T10:58:33;101851.56;;;7.65;82.67
14295;BME280;7231;59.370;18.016;2022-11-15T11:01:12;101843.56;;;7.62;82.69
14295;BME280;7231;59.370;18.016;2022-11-15T11:03:42;101846.88;;;7.59;82.70
14295;BME280;7231;59.370;18.016;2022-11-15T11:06:13;101848.78;;;7.62;83.30
14295;BME280;7231;59.370;18.016;2022-11-15T11:08:54;101844.63;;;7.65;83.06
14295;BME280;7231;59.370;18.016;2022-11-15T11:11:23;101803.19;;;7.40;82.89
14295;BME280;7231;59.370;18.016;2022-11-15T11:13:51;101850.00;;;7.68;82.98
14295;BME280;7231;59.370;18.016;2022-11-15T11:16:41;101858.09;;;7.73;82.56
14295;BME280;7231;59.370;18.016;2022-11-15T11:19:31;101852.53;;;7.67;82.63
14295;BME280;7231;59.370;18.016;2022-11-15T11:22:07;101854.34;;;7.68;82.76
14295;BME280;7231;59.370;18.016;2022-11-15T11:24:44;101824.34;;;7.45;82.28
14295;BME280;7231;59.370;18.016;2022-11-15T11:27:24;101862.00;;;7.65;82.39
14295;BME280;7231;59.370;18.016;2022-11-15T11:30:03;101862.97;;;7.67;82.00
14295;BME280;7231;59.370;18.016;2022-11-15T11:32:58;101863.63;;;7.63;80.93
14295;BME280;7231;59.370;18.016;2022-11-15T11:35:34;101865.06;;;7.58;81.97
14295;BME280;7231;59.370;18.016;2022-11-15T11:38:19;101833.63;;;7.40;81.28
14295;BME280;7231;59.370;18.016;2022-11-15T11:40:59;101859.03;;;7.59;81.20
14295;BME280;7231;59.370;18.016;2022-11-15T11:43:36;101862.47;;;7.58;81.14
14295;BME280;7231;59.370;18.016;2022-11-15T11:46:31;101863.09;;;7.54;80.78
14295;BME280;7231;59.370;18.016;2022-11-15T11:49:09;101853.31;;;7.49;81.10
14295;BME280;7231;59.370;18.016;2022-11-15T11:51:40;101828.94;;;7.34;81.65
14295;BME280;7231;59.370;18.016;2022-11-15T11:54:13;101860.31;;;7.51;81.22
14295;BME280;7231;59.370;18.016;2022-11-15T11:56:44;101854.03;;;7.47;81.75
14295;BME280;7231;59.370;18.016;2022-11-15T11:59:21;101805.16;;;7.13;81.10
14295;BME280;7231;59.370;18.016;2022-11-15T12:01:51;101873.91;;;7.45;81.17
14295;BME280;7231;59.370;18.016;2022-11-15T12:04:26;101830.06;;;7.23;81.42
14295;BME280;7231;59.370;18.016;2022-11-15T12:07:00;101864.75;;;7.37;81.25
14295;BME280;7231;59.370;18.016;2022-11-15T12:09:33;101862.88;;;7.34;81.66
14295;BME280;7231;59.370;18.016;2022-11-15T12:12:09;101864.41;;;7.31;81.14
14295;BME280;7231;59.370;18.016;2022-11-15T12:14:42;101850.19;;;7.26;81.42
14295;BME280;7231;59.370;18.016;2022-11-15T12:17:12;101868.09;;;7.34;81.01
14295;BME280;7231;59.370;18.016;2022-11-15T12:19:42;101863.31;;;7.27;81.00
14295;BME280;7231;59.370;18.016;2022-11-15T12:22:16;101852.53;;;7.21;80.68
14295;BME280;7231;59.370;18.016;2022-11-15T12:24:56;101866.84;;;7.28;80.79
14295;BME280;7231;59.370;18.016;2022-11-15T12:27:32;101860.72;;;7.27;81.24
14295;BME280;7231;59.370;18.016;2022-11-15T12:30:04;101864.50;;;7.32;81.28
14295;BME280;7231;59.370;18.016;2022-11-15T12:32:38;101861.25;;;7.36;80.97
14295;BME280;7231;59.370;18.016;2022-11-15T12:35:21;101859.63;;;7.38;81.32
14295;BME280;7231;59.370;18.016;2022-11-15T12:37:51;101863.94;;;7.38;81.21
14295;BME280;7231;59.370;18.016;2022-11-15T12:40:33;101854.41;;;7.38;80.74
14295;BME280;7231;59.370;18.016;2022-11-15T12:46:13;101862.16;;;7.37;80.62
14295;BME280;7231;59.370;18.016;2022-11-15T12:48:54;101821.53;;;7.11;80.83
14295;BME280;7231;59.370;18.016;2022-11-15T12:55:00;101866.03;;;7.29;80.81
14295;BME280;7231;59.370;18.016;2022-11-15T12:57:40;101864.41;;;7.31;81.55
14295;BME280;7231;59.370;18.016;2022-11-15T13:00:41;101861.72;;;7.29;81.68
14295;BME280;7231;59.370;18.016;2022-11-15T13:03:24;101850.09;;;7.24;81.41
14295;BME280;7231;59.370;18.016;2022-11-15T13:08:53;101847.69;;;7.27;81.64
14295;BME280;7231;59.370;18.016;2022-11-15T13:11:52;101855.50;;;7.27;81.85
14295;BME280;7231;59.370;18.016;2022-11-15T13:14:44;101845.97;;;7.28;81.82
14295;BME280;7231;59.370;18.016;2022-11-15T13:17:33;101830.50;;;7.16;81.56
14295;BME280;7231;59.370;18.016;2022-11-15T13:20:18;101829.78;;;7.19;81.82
14295;BME280;7231;59.370;18.016;2022-11-15T13:22:47;101848.13;;;7.20;81.52
14295;BME280;7231;59.370;18.016;2022-11-15T13:25:27;101838.44;;;7.18;81.89
14295;BME280;7231;59.370;18.016;2022-11-15T13:28:00;101844.19;;;7.12;81.83
14295;BME280;7231;59.370;18.016;2022-11-15T13:30:33;101844.19;;;7.12;82.21
14295;BME280;7231;59.370;18.016;2022-11-15T13:33:08;101838.44;;;7.03;82.40
14295;BME280;7231;59.370;18.016;2022-11-15T13:35:40;101823.69;;;6.89;82.57